Time;durP1;ratioP1;P1;durP2;ratioP2;P2;SDS_P1;SDS_P2;PMS_P1;PMS_P2;Temp;Humidity;BMP_temperature;BMP_pressure;BME280_temperature;BME280_humidity;BME280_pressure;Samples;Min_cycle;Max_cycle;Signal;HPM_P1;HPM_P2
2023/12/29 00:01:36;;;;;;;12.75;7.08;;;;;;;5.16;83.71;100222.59;1758754;81;21013;-67
2023/12/29 00:04:05;;;;;;;13.60;7.50;;;;;;;5.16;83.79;100229.39;1759380;81;21061;-68
2023/12/29 00:06:33;;;;;;;14.68;7.78;;;;;;;5.19;83.87;100232.28;1759398;81;21048;-68
2023/12/29 00:09:04;;;;;;;12.53;7.05;;;;;;;5.21;84.04;100230.28;1758097;81;20997;-70
2023/12/29 00:11:32;;;;;;;14.83;7.30;;;;;;;5.22;84.13;100234.69;1759430;81;20994;-69
2023/12/29 00:14:01;;;;;;;15.93;8.30;;;;;;;5.22;84.20;100221.96;1759422;81;20993;-70
2023/12/29 00:16:30;;;;;;;16.23;8.05;;;;;;;5.24;84.23;100225.36;1759608;81;21064;-68
2023/12/29 00:18:58;;;;;;;15.23;8.80;;;;;;;5.26;84.32;100229.27;1734097;81;21446;-70
2023/12/29 00:21:27;;;;;;;18.25;9.55;;;;;;;5.27;84.41;100226.38;1759397;81;21422;-72
2023/12/29 00:23:56;;;;;;;14.47;8.53;;;;;;;5.27;84.50;100211.44;1759336;81;21457;-70
2023/12/29 00:26:25;;;;;;;18.48;8.50;;;;;;;5.29;84.60;100220.27;1759558;81;21147;-69
2023/12/29 00:28:55;;;;;;;15.88;8.28;;;;;;;5.30;84.62;100218.41;1759460;81;21037;-70
2023/12/29 00:31:23;;;;;;;14.70;8.43;;;;;;;5.29;84.68;100216.20;1759453;81;21045;-71
2023/12/29 00:33:53;;;;;;;19.20;9.88;;;;;;;5.31;84.84;100214.67;1734266;81;21045;-69
2023/12/29 00:36:21;;;;;;;17.75;9.45;;;;;;;5.32;84.95;100210.42;1759313;81;21020;-70
2023/12/29 00:38:50;;;;;;;18.52;9.20;;;;;;;5.32;85.07;100215.86;1784228;80;21009;-69
2023/12/29 00:41:19;;;;;;;19.23;9.98;;;;;;;5.32;85.15;100206.35;1759690;81;21050;-69
2023/12/29 00:43:47;;;;;;;18.77;8.63;;;;;;;5.32;85.21;100201.43;1759388;81;20978;-70
2023/12/29 00:46:16;;;;;;;16.67;8.90;;;;;;;5.33;85.27;100199.91;1759493;81;20981;-70
2023/12/29 00:48:45;;;;;;;19.82;9.68;;;;;;;5.35;85.30;100198.38;1759376;81;21029;-70
2023/12/29 00:51:13;;;;;;;20.88;10.03;;;;;;;5.35;85.33;100188.86;1759541;81;21120;-69
2023/12/29 00:53:41;;;;;;;18.20;9.40;;;;;;;5.33;85.34;100189.03;1759361;81;21017;-69
2023/12/29 00:56:11;;;;;;;22.58;10.88;;;;;;;5.32;85.44;100188.69;1759437;81;21045;-69
2023/12/29 00:58:40;;;;;;;20.57;11.43;;;;;;;5.30;85.52;100189.37;1759648;81;20981;-67
2023/12/29 01:01:11;;;;;;;25.55;13.03;;;;;;;5.29;85.64;100183.59;1725606;82;21065;-70
2023/12/29 01:03:39;;;;;;;24.10;12.73;;;;;;;5.31;85.79;100192.43;1759206;80;21132;-69
2023/12/29 01:06:08;;;;;;;23.62;12.20;;;;;;;5.32;85.91;100188.69;1748582;82;21065;-69
2023/12/29 01:08:37;;;;;;;21.30;10.98;;;;;;;5.33;86.03;100182.24;1759305;80;21048;-71
2023/12/29 01:11:05;;;;;;;27.42;13.70;;;;;;;5.34;86.12;100178.51;1748680;82;21077;-69
2023/12/29 01:13:34;;;;;;;31.00;15.45;;;;;;;5.35;86.21;100173.41;1759107;81;21437;-70
2023/12/29 01:16:02;;;;;;;26.90;14.13;;;;;;;5.35;86.34;100176.13;1748280;82;21026;-71
2023/12/29 01:18:32;;;;;;;21.50;11.68;;;;;;;5.34;86.45;100169.51;1759208;80;21013;-68
2023/12/29 01:21:01;;;;;;;24.77;11.38;;;;;;;5.36;86.59;100167.47;1748617;82;21077;-69
2023/12/29 01:23:30;;;;;;;25.08;12.98;;;;;;;5.35;86.73;100173.41;1759293;81;20997;-69
2023/12/29 01:25:58;;;;;;;26.27;13.75;;;;;;;5.36;86.89;100183.27;1748357;82;21018;-71
2023/12/29 01:28:27;;;;;;;29.82;15.10;;;;;;;5.39;87.10;100176.13;1759063;80;21054;-69
2023/12/29 01:30:56;;;;;;;23.80;13.18;;;;;;;5.40;87.25;100167.47;1748613;82;21050;-70
2023/12/29 01:33:25;;;;;;;23.00;11.80;;;;;;;5.40;87.44;100169.67;1718886;82;21082;-70
2023/12/29 01:35:54;;;;;;;23.90;11.25;;;;;;;5.41;87.54;100164.58;1756567;81;21031;-71
2023/12/29 01:38:22;;;;;;;16.80;8.95;;;;;;;5.43;87.69;100164.41;1756690;82;20974;-69
2023/12/29 01:40:51;;;;;;;21.50;10.30;;;;;;;5.43;87.86;100164.92;1756392;81;20994;-70
2023/12/29 01:43:20;;;;;;;18.40;9.78;;;;;;;5.44;88.07;100166.63;1695057;85;21058;-69
2023/12/29 01:45:48;;;;;;;19.70;10.53;;;;;;;5.45;88.21;100161.52;1725507;83;21026;-71
2023/12/29 01:48:19;;;;;;;17.75;10.08;;;;;;;5.47;88.43;100163.56;1693777;85;21132;-69
2023/12/29 01:50:48;;;;;;;19.02;10.23;;;;;;;5.47;88.68;100158.13;1725558;82;21042;-70
2023/12/29 01:53:16;;;;;;;17.55;8.60;;;;;;;5.48;88.96;100162.55;1694793;85;21070;-69
2023/12/29 01:55:46;;;;;;;17.12;9.70;;;;;;;5.49;89.44;100169.67;1695573;83;21042;-69
2023/12/29 01:58:14;;;;;;;17.15;8.40;;;;;;;5.53;89.65;100160.16;1756419;82;21010;-70
2023/12/29 02:00:43;;;;;;;17.92;9.58;;;;;;;5.56;89.81;100166.61;1756378;81;21017;-69
2023/12/29 02:03:12;;;;;;;18.25;9.60;;;;;;;5.59;89.93;100171.19;1756409;82;21009;-69
2023/12/29 02:05:40;;;;;;;18.85;10.25;;;;;;;5.61;90.12;100157.44;1756405;82;21017;-69
2023/12/29 02:08:09;;;;;;;22.25;12.45;;;;;;;5.61;90.24;100161.51;1695039;85;21451;-70
2023/12/29 02:10:39;;;;;;;31.80;15.98;;;;;;;5.63;90.37;100168.98;1725567;82;21054;-70
2023/12/29 02:13:07;;;;;;;29.72;15.53;;;;;;;5.64;90.43;100155.73;1694944;85;21524;-69
2023/12/29 02:15:36;;;;;;;17.75;8.90;;;;;;;5.67;90.43;100156.75;1695434;83;21102;-68
2023/12/29 02:18:07;;;;;;;18.50;8.90;;;;;;;5.68;90.43;100144.85;1694854;85;21506;-71
2023/12/29 02:20:36;;;;;;;16.05;9.00;;;;;;;5.70;90.54;100146.89;1725238;82;21085;-69
2023/12/29 02:23:04;;;;;;;17.02;8.45;;;;;;;5.70;90.72;100146.38;1694945;85;21050;-69
2023/12/29 02:25:33;;;;;;;16.85;9.48;;;;;;;5.72;90.91;100144.84;1711299;82;21062;-70
2023/12/29 02:28:18;;;;;;;16.50;8.65;;;;;;;5.76;91.10;100143.48;1694856;85;21525;-69
2023/12/29 02:30:54;;;;;;;17.67;9.45;;;;;;;5.77;91.20;100138.38;1725459;82;21038;-70
2023/12/29 02:33:25;;;;;;;15.15;7.95;;;;;;;5.79;91.23;100136.34;1694856;85;21078;-69
2023/12/29 02:35:55;;;;;;;14.58;8.25;;;;;;;5.82;91.34;100135.98;1725160;83;21081;-69
2023/12/29 02:38:27;;;;;;;16.30;7.80;;;;;;;5.84;91.37;100131.23;1695062;85;21063;-70
2023/12/29 02:40:56;;;;;;;16.73;8.70;;;;;;;5.86;91.40;100132.44;1725506;83;21042;-70
2023/12/29 02:43:25;;;;;;;15.98;8.88;;;;;;;5.87;91.57;100129.55;1695038;85;21027;-70
2023/12/29 02:45:54;;;;;;;15.38;8.88;;;;;;;5.87;91.68;100131.42;1725448;83;21090;-69
2023/12/29 02:48:22;;;;;;;16.52;9.43;;;;;;;5.88;91.73;100125.81;1694917;85;21141;-70
2023/12/29 02:50:51;;;;;;;19.17;9.05;;;;;;;5.90;91.80;100137.39;1725392;82;21054;-70
2023/12/29 02:53:20;;;;;;;18.32;9.75;;;;;;;5.90;91.89;100129.23;1695137;85;21070;-69
2023/12/29 02:55:48;;;;;;;20.92;10.45;;;;;;;5.88;92.03;100133.97;1725376;82;21053;-70
2023/12/29 02:58:16;;;;;;;20.45;10.50;;;;;;;5.89;92.15;100139.77;1694894;85;21087;-70
2023/12/29 03:00:44;;;;;;;24.87;11.70;;;;;;;5.89;92.21;100130.26;1724490;80;21070;-71
2023/12/29 03:03:14;;;;;;;31.87;13.08;;;;;;;5.91;92.29;100124.13;1690315;85;21067;-71
2023/12/29 03:05:43;;;;;;;21.20;10.28;;;;;;;5.92;92.34;100123.62;1720414;83;21080;-70
2023/12/29 03:08:11;;;;;;;23.67;13.15;;;;;;;5.94;92.39;100126.50;1690149;85;21183;-70
2023/12/29 03:10:40;;;;;;;28.90;17.27;;;;;;;5.94;92.42;100132.45;1720571;83;21500;-70
2023/12/29 03:13:09;;;;;;;25.75;14.90;;;;;;;5.93;92.39;100131.61;1690381;85;21027;-70
2023/12/29 03:15:37;;;;;;;27.42;15.28;;;;;;;5.93;92.50;100134.33;1720437;82;21070;-70
2023/12/29 03:18:06;;;;;;;38.78;20.80;;;;;;;5.95;92.45;100136.36;1690328;85;21094;-70
2023/12/29 03:20:36;;;;;;;30.62;15.83;;;;;;;5.94;92.31;100140.09;1720623;83;21090;-71
2023/12/29 03:23:04;;;;;;;20.85;9.68;;;;;;;5.90;92.40;100134.67;1690118;85;21090;-69
2023/12/29 03:25:33;;;;;;;21.40;10.50;;;;;;;5.88;92.54;100132.61;1720357;83;21474;-70
2023/12/29 03:28:01;;;;;;;18.37;9.55;;;;;;;5.89;92.67;100136.17;1717638;83;21000;-70
2023/12/29 03:30:30;;;;;;;15.72;9.15;;;;;;;5.91;92.71;100128.21;1694918;84;21115;-70
2023/12/29 03:32:59;;;;;;;16.55;9.13;;;;;;;5.93;92.64;100131.61;1720482;83;21074;-71
2023/12/29 03:35:29;;;;;;;19.05;10.45;;;;;;;5.94;92.60;100125.66;1720441;83;21018;-69
2023/12/29 03:37:58;;;;;;;16.20;8.98;;;;;;;5.95;92.56;100132.28;1720651;83;21062;-69
2023/12/29 03:40:26;;;;;;;19.20;9.88;;;;;;;5.95;92.50;100134.15;1720809;82;21109;-70
2023/12/29 03:42:55;;;;;;;21.23;10.63;;;;;;;5.94;92.29;100131.94;1720508;83;21039;-71
2023/12/29 03:45:24;;;;;;;19.87;10.75;;;;;;;5.90;92.10;100122.95;1720538;83;21058;-70
2023/12/29 03:47:52;;;;;;;19.55;10.58;;;;;;;5.89;92.06;100123.46;1720467;83;21106;-71
2023/12/29 03:50:20;;;;;;;17.90;9.95;;;;;;;5.89;92.03;100127.53;1720510;83;21110;-70
2023/12/29 03:52:50;;;;;;;23.50;12.93;;;;;;;5.90;91.97;100136.03;1720671;82;21031;-70
2023/12/29 03:55:19;;;;;;;25.40;14.23;;;;;;;5.93;91.88;100141.13;1720474;83;21105;-68
2023/12/29 03:57:47;;;;;;;20.92;11.63;;;;;;;5.96;91.60;100139.92;1720597;83;21446;-69
2023/12/29 04:00:18;;;;;;;18.98;11.38;;;;;;;5.95;91.31;100140.44;1720535;83;21074;-70
2023/12/29 04:02:46;;;;;;;23.90;12.47;;;;;;;5.93;91.07;100126.67;1720523;80;21098;-70
2023/12/29 04:05:14;;;;;;;21.23;11.28;;;;;;;5.94;90.85;100141.97;1720450;82;21078;-68
2023/12/29 04:07:43;;;;;;;23.92;12.07;;;;;;;5.94;90.64;100142.82;1720750;83;21472;-70
2023/12/29 04:10:11;;;;;;;23.83;11.53;;;;;;;5.94;90.46;100140.09;1694193;83;21090;-69
2023/12/29 04:12:40;;;;;;;18.15;10.18;;;;;;;5.95;90.36;100137.72;1720540;82;21069;-69
2023/12/29 04:15:09;;;;;;;20.82;10.70;;;;;;;5.96;90.08;100129.89;1720443;83;21371;-68
2023/12/29 04:17:38;;;;;;;15.48;8.63;;;;;;;5.98;89.94;100127.85;1720550;83;21491;-70
2023/12/29 04:20:08;;;;;;;14.85;8.35;;;;;;;6.00;89.62;100131.24;1720630;83;21094;-70
2023/12/29 04:22:36;;;;;;;15.53;8.23;;;;;;;6.02;89.37;100125.12;1720513;82;21090;-69
2023/12/29 04:25:05;;;;;;;16.77;9.50;;;;;;;6.04;89.12;100123.07;1720409;83;21075;-68
2023/12/29 04:27:35;;;;;;;18.62;11.12;;;;;;;6.04;88.88;100112.19;1694650;83;21097;-69
2023/12/29 04:30:05;;;;;;;21.45;11.90;;;;;;;6.06;88.59;100110.66;1720692;83;21082;-70
2023/12/29 04:32:34;;;;;;;24.90;12.45;;;;;;;6.07;88.37;100110.14;1720764;83;21054;-70
2023/12/29 04:35:04;;;;;;;17.62;10.13;;;;;;;6.06;88.20;100111.17;1720677;83;21031;-69
2023/12/29 04:37:33;;;;;;;21.35;10.93;;;;;;;6.06;87.92;100103.01;1720519;82;21201;-70
2023/12/29 04:40:01;;;;;;;18.95;10.45;;;;;;;6.03;87.84;100109.65;1720459;82;21056;-69
2023/12/29 04:42:31;;;;;;;16.90;8.90;;;;;;;6.01;87.82;100103.53;1720531;83;21026;-68
2023/12/29 04:44:59;;;;;;;14.43;8.50;;;;;;;6.01;87.69;100112.55;1720435;83;21027;-70
2023/12/29 04:47:28;;;;;;;14.50;8.53;;;;;;;5.99;87.60;100113.74;1720600;83;21126;-68
2023/12/29 04:49:56;;;;;;;13.40;7.97;;;;;;;5.95;87.56;100125.99;1720729;83;21099;-70
2023/12/29 04:52:25;;;;;;;17.00;8.60;;;;;;;5.91;87.53;100119.20;1694528;83;21141;-70
2023/12/29 04:54:53;;;;;;;15.10;8.48;;;;;;;5.87;87.55;100121.39;1720726;83;21078;-70
2023/12/29 04:57:22;;;;;;;14.53;8.73;;;;;;;5.83;87.56;100128.68;1720484;83;21078;-70
2023/12/29 04:59:50;;;;;;;16.95;9.23;;;;;;;5.81;87.68;100134.30;1720492;83;21050;-70
2023/12/29 05:02:19;;;;;;;16.80;8.60;;;;;;;5.79;87.68;100134.12;1723414;81;21062;-71
2023/12/29 05:04:48;;;;;;;17.07;8.20;;;;;;;5.75;87.73;100136.34;1725533;83;21023;-71
2023/12/29 05:07:17;;;;;;;17.70;9.08;;;;;;;5.75;87.78;100140.42;1725534;82;21055;-71
2023/12/29 05:09:46;;;;;;;16.02;9.05;;;;;;;5.74;87.78;100138.72;1695639;83;21412;-71
2023/12/29 05:12:15;;;;;;;14.65;8.28;;;;;;;5.72;87.87;100137.54;1695489;83;21070;-68
2023/12/29 05:14:43;;;;;;;14.78;7.92;;;;;;;5.69;87.96;100129.73;1725427;82;21007;-69
2023/12/29 05:17:12;;;;;;;16.67;9.00;;;;;;;5.66;88.02;100132.80;1725368;82;21518;-71
2023/12/29 05:19:40;;;;;;;19.55;11.40;;;;;;;5.64;88.08;100138.06;1725303;82;21085;-70
2023/12/29 05:22:09;;;;;;;21.35;10.72;;;;;;;5.61;88.06;100138.41;1695762;83;21070;-70
2023/12/29 05:24:37;;;;;;;23.12;12.75;;;;;;;5.59;88.04;100141.81;1725487;82;21034;-70
2023/12/29 05:27:06;;;;;;;23.27;12.23;;;;;;;5.55;88.13;100137.23;1725403;82;21097;-70
2023/12/29 05:29:34;;;;;;;13.98;8.08;;;;;;;5.53;88.23;100135.19;1725484;83;21482;-70
2023/12/29 05:32:03;;;;;;;15.65;8.45;;;;;;;5.50;88.30;100133.33;1725262;82;21126;-71
2023/12/29 05:34:32;;;;;;;16.77;8.10;;;;;;;5.47;88.39;100133.67;1725598;82;21062;-70
2023/12/29 05:37:00;;;;;;;14.75;8.10;;;;;;;5.45;88.46;100146.58;1725456;83;21034;-69
2023/12/29 05:39:29;;;;;;;14.50;8.10;;;;;;;5.41;88.52;100131.98;1725373;83;21046;-71
2023/12/29 05:41:57;;;;;;;17.87;8.75;;;;;;;5.39;88.67;100136.73;1695521;83;21085;-71
2023/12/29 05:44:26;;;;;;;14.55;8.00;;;;;;;5.39;88.65;100138.60;1695588;83;21573;-71
2023/12/29 05:46:54;;;;;;;17.73;9.10;;;;;;;5.37;88.66;100140.13;1725453;82;21101;-71
2023/12/29 05:49:26;;;;;;;20.82;11.48;;;;;;;5.35;88.57;100142.17;1725331;82;21490;-71
2023/12/29 05:51:55;;;;;;;21.33;11.20;;;;;;;5.32;88.66;100139.80;1711140;83;21062;-71
2023/12/29 05:54:24;;;;;;;26.05;13.50;;;;;;;5.29;88.70;100133.34;1725292;82;21074;-72
2023/12/29 05:56:53;;;;;;;27.22;14.20;;;;;;;5.30;88.72;100136.91;1725361;83;21062;-71
2023/12/29 05:59:22;;;;;;;22.87;12.73;;;;;;;5.26;88.72;100126.05;1725433;82;21086;-71
2023/12/29 06:01:50;;;;;;;26.70;13.35;;;;;;;5.23;88.64;100141.33;1725336;81;21074;-72
2023/12/29 06:04:19;;;;;;;25.12;12.65;;;;;;;5.20;88.71;100154.73;1711433;83;21479;-71
2023/12/29 06:06:47;;;;;;;20.72;11.45;;;;;;;5.16;88.70;100150.62;1725315;82;21502;-70
2023/12/29 06:09:16;;;;;;;20.12;11.73;;;;;;;5.15;88.86;100150.29;1725477;82;21113;-71
2023/12/29 06:11:44;;;;;;;21.15;12.43;;;;;;;5.13;89.02;100159.11;1725231;83;21478;-70
2023/12/29 06:14:13;;;;;;;19.10;10.43;;;;;;;5.12;89.17;100160.13;1725322;83;21560;-71
2023/12/29 06:16:41;;;;;;;16.32;9.03;;;;;;;5.13;89.19;100154.19;1725365;83;21505;-71
2023/12/29 06:19:10;;;;;;;17.30;8.73;;;;;;;5.14;89.13;100163.53;1725453;82;21101;-70
2023/12/29 06:21:47;;;;;;;19.00;10.78;;;;;;;5.17;89.14;100157.77;1725326;83;21565;-72
2023/12/29 06:24:12;;;;;;;22.70;11.73;;;;;;;5.19;89.00;100150.80;1724968;82;21070;-71
2023/12/29 06:26:43;;;;;;;22.87;11.63;;;;;;;5.17;89.01;100159.11;1695306;83;21090;-72
2023/12/29 06:29:12;;;;;;;20.52;11.85;;;;;;;5.18;89.03;100147.74;1725425;82;21560;-71
2023/12/29 06:31:44;;;;;;;25.82;12.80;;;;;;;5.18;89.01;100151.31;1725356;82;21144;-71
2023/12/29 06:34:12;;;;;;;22.73;11.33;;;;;;;5.21;88.88;100156.95;1725340;82;21053;-71
2023/12/29 06:36:41;;;;;;;26.15;13.93;;;;;;;5.21;88.76;100148.80;1725197;82;21038;-71
2023/12/29 06:39:10;;;;;;;26.42;14.45;;;;;;;5.22;88.71;100150.49;1725627;82;21043;-72
2023/12/29 06:41:38;;;;;;;25.82;13.35;;;;;;;5.22;88.69;100148.63;1725313;82;21494;-71
2023/12/29 06:44:07;;;;;;;21.10;11.75;;;;;;;5.21;88.63;100153.72;1695508;83;21074;-71
2023/12/29 06:46:38;;;;;;;19.07;10.95;;;;;;;5.19;88.69;100147.58;1725352;83;21055;-71
2023/12/29 06:49:09;;;;;;;27.80;11.65;;;;;;;5.22;88.70;100147.27;1725262;83;21554;-69
2023/12/29 06:51:40;;;;;;;24.60;12.00;;;;;;;5.26;88.74;100136.91;1725275;83;21119;-70
2023/12/29 06:54:09;;;;;;;20.27;11.10;;;;;;;5.30;88.73;100129.61;1725320;82;21018;-72
2023/12/29 06:56:37;;;;;;;18.73;10.93;;;;;;;5.33;88.65;100126.55;1725503;83;21062;-71
2023/12/29 06:59:07;;;;;;;21.65;13.38;;;;;;;5.36;88.58;100121.29;1711606;82;21092;-73
2023/12/29 07:01:41;;;;;;;23.42;12.63;;;;;;;5.37;88.55;100117.05;1725355;80;21066;-71
2023/12/29 07:04:10;;;;;;;20.12;10.60;;;;;;;5.41;88.48;100117.04;1725238;83;21509;-71
2023/12/29 07:06:38;;;;;;;17.62;9.30;;;;;;;5.46;88.35;100115.16;1725527;83;21105;-71
2023/12/29 07:09:08;;;;;;;19.35;10.18;;;;;;;5.47;88.08;100124.16;1725467;82;21085;-71
2023/12/29 07:11:37;;;;;;;26.05;13.28;;;;;;;5.49;88.03;100128.91;1725411;82;21516;-70
2023/12/29 07:14:05;;;;;;;26.60;15.03;;;;;;;5.53;87.95;100137.91;1725270;82;21058;-71
2023/12/29 07:16:34;;;;;;;22.07;12.47;;;;;;;5.55;87.88;100125.52;1725225;82;21109;-71
2023/12/29 07:19:03;;;;;;;23.65;13.03;;;;;;;5.56;87.77;100129.92;1725644;82;21093;-71
2023/12/29 07:21:31;;;;;;;27.20;13.78;;;;;;;5.56;87.59;100132.13;1725430;82;21065;-70
2023/12/29 07:24:00;;;;;;;24.40;11.43;;;;;;;5.58;87.52;100130.60;1725269;82;21478;-72
2023/12/29 07:26:30;;;;;;;21.33;11.78;;;;;;;5.62;87.42;100136.03;1725491;82;21125;-70
2023/12/29 07:28:58;;;;;;;21.55;10.28;;;;;;;5.65;87.39;100138.41;1725418;83;21089;-71
2023/12/29 07:31:27;;;;;;;21.65;10.53;;;;;;;5.68;87.20;100138.91;1725253;82;21090;-71
2023/12/29 07:33:56;;;;;;;19.23;10.40;;;;;;;5.71;87.04;100139.92;1695535;83;21049;-72
2023/12/29 07:36:25;;;;;;;21.40;11.65;;;;;;;5.72;87.04;100144.34;1725297;83;21045;-70
2023/12/29 07:38:53;;;;;;;21.82;10.93;;;;;;;5.76;86.96;100146.20;1725229;83;21062;-71
2023/12/29 07:41:21;;;;;;;17.73;9.83;;;;;;;5.80;86.95;100143.98;1711096;83;21373;-71
2023/12/29 07:43:50;;;;;;;20.25;9.68;;;;;;;5.84;86.78;100139.89;1725438;82;21069;-71
2023/12/29 07:46:29;;;;;;;20.43;9.68;;;;;;;5.89;86.61;100141.61;1695388;83;21082;-69
2023/12/29 07:48:57;;;;;;;16.02;8.80;;;;;;;5.92;86.49;100135.86;1725332;83;21077;-70
2023/12/29 07:51:27;;;;;;;19.05;9.35;;;;;;;5.99;86.49;100140.42;1725360;82;21090;-69
2023/12/29 07:53:55;;;;;;;16.15;8.50;;;;;;;6.12;86.38;100145.31;1725286;82;21122;-70
2023/12/29 07:56:24;;;;;;;16.32;8.50;;;;;;;6.25;85.75;100140.67;1725487;83;21058;-72
2023/12/29 07:58:53;;;;;;;17.02;9.28;;;;;;;6.32;85.30;100138.43;1725408;83;21482;-70
2023/12/29 08:01:22;;;;;;;23.18;8.55;;;;;;;6.35;84.98;100138.08;1725477;83;21089;-70
2023/12/29 08:03:50;;;;;;;19.02;11.00;;;;;;;6.39;84.56;100150.81;1725145;80;21030;-70
2023/12/29 08:06:19;;;;;;;22.45;11.63;;;;;;;6.39;84.19;100153.53;1725229;82;21117;-72
2023/12/29 08:08:48;;;;;;;23.27;10.43;;;;;;;6.34;83.59;100152.70;1725321;82;21093;-72
2023/12/29 08:11:16;;;;;;;20.60;9.15;;;;;;;6.33;83.71;100158.33;1725378;82;21081;-71
2023/12/29 08:13:48;;;;;;;18.90;9.78;;;;;;;6.35;83.64;100163.08;1725370;83;21042;-71
2023/12/29 08:16:19;;;;;;;27.32;11.08;;;;;;;6.35;83.59;100161.72;1725364;83;21073;-71
2023/12/29 08:18:49;;;;;;;20.97;9.68;;;;;;;6.41;83.67;100172.41;1725434;83;21126;-71
2023/12/29 08:21:19;;;;;;;21.62;10.43;;;;;;;6.45;83.31;100163.71;1725328;82;21046;-71
2023/12/29 08:23:48;;;;;;;31.45;11.90;;;;;;;6.45;83.01;100157.42;1725290;83;21481;-70
2023/12/29 08:26:17;;;;;;;35.40;13.50;;;;;;;6.42;82.91;100155.05;1725367;83;21086;-69
2023/12/29 08:28:46;;;;;;;35.15;15.20;;;;;;;6.41;83.06;100151.48;1725426;82;21519;-71
2023/12/29 08:31:16;;;;;;;35.85;15.30;;;;;;;6.43;83.15;100158.11;1725317;83;21014;-71
2023/12/29 08:33:45;;;;;;;36.98;14.38;;;;;;;6.45;83.22;100171.88;1725577;82;21061;-72
2023/12/29 08:36:13;;;;;;;33.65;12.70;;;;;;;6.47;83.12;100163.02;1725221;82;21462;-71
2023/12/29 08:38:42;;;;;;;30.97;12.37;;;;;;;6.47;83.08;100154.86;1725649;82;21090;-71
2023/12/29 08:41:16;;;;;;;27.73;11.70;;;;;;;6.49;83.07;100162.33;1711207;83;21522;-71
2023/12/29 08:43:44;;;;;;;32.83;12.43;;;;;;;6.50;82.87;100155.90;1688298;82;21494;-71
2023/12/29 08:46:13;;;;;;;31.05;13.30;;;;;;;6.48;82.83;100151.63;1725468;83;21101;-71
2023/12/29 08:48:42;;;;;;;31.10;15.60;;;;;;;6.48;83.00;100152.47;1725439;83;21078;-71
2023/12/29 08:51:10;;;;;;;32.48;14.28;;;;;;;6.51;83.02;100154.88;1725549;82;21455;-71
2023/12/29 08:53:39;;;;;;;33.63;13.38;;;;;;;6.53;82.89;100158.27;1695642;83;21038;-71
2023/12/29 08:56:07;;;;;;;26.30;11.55;;;;;;;6.53;82.79;100154.69;1725306;82;21466;-70
2023/12/29 08:58:36;;;;;;;35.65;13.53;;;;;;;6.51;82.81;100152.15;1725285;83;21602;-70
2023/12/29 09:01:04;;;;;;;43.80;18.82;;;;;;;6.51;82.82;100154.88;1725333;83;21486;-72
2023/12/29 09:03:33;;;;;;;31.80;14.25;;;;;;;6.53;82.86;100159.63;1759646;80;21071;-73
2023/12/29 09:06:03;;;;;;;29.95;13.58;;;;;;;6.54;83.47;100145.50;1747400;80;21472;-76
2023/12/29 09:08:32;;;;;;;32.13;14.73;;;;;;;6.57;83.25;100148.72;1725531;81;21005;-77
2023/12/29 09:11:01;;;;;;;35.40;14.55;;;;;;;6.60;83.52;100146.15;1725005;81;21590;-76
2023/12/29 09:13:30;;;;;;;33.48;14.95;;;;;;;6.66;83.36;100147.64;1736841;82;21437;-75
2023/12/29 09:15:59;;;;;;;34.85;15.75;;;;;;;6.71;83.18;100143.53;1730418;83;21068;-76
2023/12/29 09:18:28;;;;;;;26.85;11.20;;;;;;;6.76;83.03;100136.53;1724996;83;21052;-76
2023/12/29 09:20:56;;;;;;;33.85;11.93;;;;;;;6.85;82.66;100127.79;1724736;82;21559;-74
2023/12/29 09:23:25;;;;;;;99.40;33.45;;;;;;;6.93;82.42;100126.38;1690761;83;21044;-76
2023/12/29 09:25:53;;;;;;;28.55;12.20;;;;;;;6.98;82.18;100119.35;1716355;83;21068;-76
2023/12/29 09:28:22;;;;;;;25.40;10.15;;;;;;;7.08;81.92;100112.81;1716581;83;21038;-75
2023/12/29 09:30:51;;;;;;;28.60;12.20;;;;;;;7.16;81.50;100106.81;1716456;83;21061;-76
2023/12/29 09:33:20;;;;;;;29.75;11.33;;;;;;;7.23;81.18;100115.95;1716415;83;20978;-74
2023/12/29 09:35:49;;;;;;;34.48;11.53;;;;;;;7.28;80.83;100113.52;1716203;83;21489;-75
2023/12/29 09:38:18;;;;;;;21.68;10.23;;;;;;;7.31;80.35;100113.16;1717410;83;21045;-76
2023/12/29 09:40:49;;;;;;;26.45;10.15;;;;;;;7.31;79.81;100110.43;1724919;82;21068;-76
2023/12/29 09:43:17;;;;;;;31.30;11.00;;;;;;;7.31;79.60;100111.80;1724940;82;21542;-76
2023/12/29 09:45:46;;;;;;;24.43;10.88;;;;;;;7.29;79.55;100108.41;1724984;82;21482;-75
2023/12/29 09:48:19;;;;;;;28.90;12.30;;;;;;;7.29;79.60;100117.09;1724807;83;21096;-77
2023/12/29 09:50:50;;;;;;;25.05;10.53;;;;;;;7.31;79.76;100120.48;1730563;82;21602;-76
2023/12/29 09:53:20;;;;;;;27.48;11.30;;;;;;;7.35;79.74;100119.09;1684585;83;21016;-77
2023/12/29 09:55:49;;;;;;;29.57;11.65;;;;;;;7.37;79.60;100112.09;1725351;83;21291;-77
2023/12/29 09:58:21;;;;;;;28.87;10.45;;;;;;;7.41;79.70;100113.41;1724812;83;21072;-76
2023/12/29 10:00:51;;;;;;;32.35;12.60;;;;;;;7.43;79.45;100104.02;1724781;83;21029;-78
2023/12/29 10:03:20;;;;;;;34.33;13.00;;;;;;;7.45;79.27;100108.77;1719386;82;21085;-77
2023/12/29 10:05:51;;;;;;;23.90;11.55;;;;;;;7.48;79.37;100110.28;1709245;84;21035;-76
2023/12/29 10:08:20;;;;;;;33.88;12.70;;;;;;;7.50;79.17;100106.86;1713996;83;21006;-78
2023/12/29 10:10:49;;;;;;;30.92;12.05;;;;;;;7.52;79.12;100103.43;1718319;83;21503;-77
2023/12/29 10:13:18;;;;;;;27.00;12.47;;;;;;;7.54;79.05;100097.27;1714680;82;21065;-75
2023/12/29 10:15:52;;;;;;;26.68;11.93;;;;;;;7.57;79.00;100094.17;1712330;83;21102;-76
2023/12/29 10:18:47;;;;;;;21.17;10.75;;;;;;;7.59;78.83;100088.02;1718093;82;21532;-77
2023/12/29 10:21:26;;;;;;;20.55;10.20;;;;;;;7.61;78.83;100088.68;1718236;83;21556;-78
2023/12/29 10:24:00;;;;;;;17.87;9.35;;;;;;;7.63;78.90;100081.16;1718565;83;21046;-77
2023/12/29 10:26:29;;;;;;;16.35;8.98;;;;;;;7.63;78.59;100077.92;1719730;83;21015;-77
2023/12/29 10:28:57;;;;;;;15.40;8.58;;;;;;;7.62;78.31;100068.05;1719869;82;21086;-78
2023/12/29 10:31:26;;;;;;;20.27;8.23;;;;;;;7.62;78.13;100069.92;1719801;83;21528;-78
2023/12/29 10:34:28;;;;;;;18.70;9.75;;;;;;;7.60;78.10;100068.75;1717296;82;21054;-76
2023/12/29 10:36:52;;;;;;;19.45;10.10;;;;;;;7.61;78.50;100079.14;1719368;83;21046;-78
2023/12/29 10:39:22;;;;;;;12.88;7.87;;;;;;;7.66;78.73;100078.06;1719778;82;21066;-77
2023/12/29 10:41:52;;;;;;;18.02;8.78;;;;;;;7.69;78.27;100079.05;1718867;83;21050;-76
2023/12/29 10:44:21;;;;;;;18.45;8.40;;;;;;;7.70;78.38;100076.66;1715567;83;21055;-78
2023/12/29 10:46:49;;;;;;;14.73;8.73;;;;;;;7.71;78.31;100072.89;1718239;83;21110;-79
2023/12/29 10:49:18;;;;;;;14.50;7.87;;;;;;;7.72;77.88;100070.50;1715618;83;21102;-78
2023/12/29 10:51:47;;;;;;;20.30;9.45;;;;;;;7.72;77.79;100078.67;1669766;83;21094;-76
2023/12/29 10:54:24;;;;;;;14.33;7.62;;;;;;;7.73;77.75;100066.73;1718061;83;21182;-78
2023/12/29 10:57:05;;;;;;;23.20;9.08;;;;;;;7.77;77.67;100062.59;1716308;83;21054;-77
2023/12/29 10:59:34;;;;;;;21.75;8.60;;;;;;;7.81;77.61;100063.95;1718221;83;21043;-78
2023/12/29 11:02:03;;;;;;;21.87;8.93;;;;;;;7.84;77.48;100070.39;1718119;83;21038;-77
2023/12/29 11:04:34;;;;;;;19.57;10.13;;;;;;;7.88;77.50;100071.70;1718346;82;21071;-78
2023/12/29 11:07:03;;;;;;;18.20;8.43;;;;;;;7.93;77.55;100082.89;1718762;83;21051;-76
2023/12/29 11:09:36;;;;;;;14.53;7.92;;;;;;;7.97;77.29;100079.27;1718538;83;21042;-76
2023/12/29 11:12:05;;;;;;;23.25;8.25;;;;;;;7.99;76.79;100080.45;1718665;83;21039;-78
2023/12/29 11:14:34;;;;;;;15.70;8.15;;;;;;;7.95;76.67;100077.25;1715147;83;21006;-78
2023/12/29 11:17:06;;;;;;;12.88;7.53;;;;;;;7.94;76.67;100072.31;1718636;83;21047;-76
2023/12/29 11:19:34;;;;;;;21.02;10.28;;;;;;;7.95;76.83;100070.43;1718726;83;21483;-78
2023/12/29 11:22:03;;;;;;;18.17;8.10;;;;;;;7.98;76.85;100067.84;1718540;82;21039;-76
2023/12/29 11:24:32;;;;;;;15.20;7.78;;;;;;;7.99;76.65;100063.56;1718754;83;21067;-77
2023/12/29 11:27:03;;;;;;;21.30;8.40;;;;;;;8.02;76.84;100060.97;1717427;82;21071;-78
2023/12/29 11:29:32;;;;;;;25.62;8.78;;;;;;;8.04;76.91;100057.02;1715888;83;21495;-78